createdAt,value
2019-05-14T00:01:31.408Z,38.84
2019-05-14T00:04:02.072Z,40.58
2019-05-14T00:06:31.457Z,40.67
2019-05-14T00:09:01.463Z,41.17
2019-05-14T00:11:31.300Z,40.07
2019-05-14T00:14:01.264Z,41.68
2019-05-14T00:16:31.544Z,40.94
2019-05-14T00:19:01.650Z,40.77
2019-05-14T00:21:31.609Z,41.90
2019-05-14T00:24:01.818Z,42.67
2019-05-14T00:26:31.885Z,40.09
2019-05-14T00:29:01.713Z,40.00
2019-05-14T00:31:31.749Z,41.87
2019-05-14T00:34:01.831Z,41.57
2019-05-14T00:36:31.920Z,41.58
2019-05-14T00:39:01.882Z,40.40
2019-05-14T00:41:31.331Z,41.21
2019-05-14T00:44:01.956Z,41.51
2019-05-14T00:46:31.590Z,41.35
2019-05-14T00:49:01.827Z,41.74
2019-05-14T00:51:31.805Z,42.80
2019-05-14T00:54:01.660Z,41.21
2019-05-14T00:56:32.153Z,41.05
2019-05-14T00:59:01.506Z,42.81
2019-05-14T01:01:31.785Z,41.75
2019-05-14T01:04:01.383Z,41.27
2019-05-14T01:06:31.506Z,42.00
2019-05-14T01:09:01.553Z,42.73
2019-05-14T01:11:31.520Z,41.92
2019-05-14T01:14:01.731Z,41.60
2019-05-14T01:16:31.771Z,41.72
2019-05-14T01:19:02.103Z,41.92
2019-05-14T01:21:31.525Z,42.57
2019-05-14T01:24:02.061Z,42.38
2019-05-14T01:26:31.382Z,42.82
2019-05-14T01:29:01.433Z,42.60
2019-05-14T01:31:31.515Z,43.83
2019-05-14T01:34:02.170Z,43.58
2019-05-14T01:36:32.023Z,43.93
2019-05-14T01:39:01.938Z,44.57
2019-05-14T01:41:31.833Z,42.67
2019-05-14T01:44:01.801Z,42.77
2019-05-14T01:46:31.627Z,43.23
2019-05-14T01:49:01.715Z,43.50
2019-05-14T01:51:31.735Z,43.55
2019-05-14T01:54:01.606Z,43.86
2019-05-14T01:56:31.928Z,43.24
2019-05-14T01:59:01.840Z,43.75
2019-05-14T02:01:31.662Z,43.51
2019-05-14T02:04:02.377Z,44.59
2019-05-14T02:06:31.966Z,44.29
2019-05-14T02:09:02.034Z,44.60
2019-05-14T02:11:32.058Z,44.48
2019-05-14T02:14:02.374Z,44.58
2019-05-14T02:16:31.804Z,44.62
2019-05-14T02:19:01.512Z,46.56
2019-05-14T02:21:31.685Z,45.26
2019-05-14T02:24:01.990Z,44.89
2019-05-14T02:26:31.797Z,44.83
2019-05-14T02:29:01.980Z,46.36
2019-05-14T02:31:31.431Z,46.85
2019-05-14T02:34:00.929Z,46.50
2019-05-14T02:36:31.090Z,45.85
2019-05-14T02:39:00.733Z,46.26
2019-05-14T02:41:30.233Z,48.26
2019-05-14T02:43:59.625Z,48.05
2019-05-14T02:46:29.742Z,48.98
2019-05-14T02:48:59.610Z,48.86
2019-05-14T02:51:30.048Z,47.98
2019-05-14T02:53:59.670Z,48.36
2019-05-14T02:56:29.543Z,48.89
2019-05-14T02:58:59.979Z,49.28
2019-05-14T03:01:30.389Z,48.53
2019-05-14T03:03:59.955Z,50.01
2019-05-14T03:06:29.383Z,50.29
2019-05-14T03:08:59.920Z,47.76
2019-05-14T03:11:29.930Z,49.14
2019-05-14T03:14:00.048Z,48.31
2019-05-14T03:16:35.276Z,48.35
2019-05-14T03:19:01.272Z,49.85
2019-05-14T03:21:30.759Z,48.54
2019-05-14T03:24:00.979Z,48.37
2019-05-14T03:26:30.340Z,48.70
2019-05-14T03:29:00.255Z,49.68
2019-05-14T03:31:32.904Z,49.02
2019-05-14T03:34:03.353Z,51.42
2019-05-14T03:36:34.391Z,51.72
2019-05-14T03:39:03.190Z,49.69
2019-05-14T03:41:32.482Z,49.74
2019-05-14T03:44:01.817Z,49.34
2019-05-14T03:46:44.266Z,48.74
2019-05-14T03:49:02.097Z,48.90
2019-05-14T03:51:31.342Z,48.44
2019-05-14T03:54:05.941Z,49.66
2019-05-14T03:56:31.787Z,50.06
2019-05-14T03:59:01.507Z,49.83
2019-05-14T04:01:31.337Z,49.17
2019-05-14T04:04:01.020Z,49.46
2019-05-14T04:06:32.173Z,51.05
2019-05-14T04:09:02.893Z,51.29
2019-05-14T04:11:34.886Z,48.22
2019-05-14T04:14:04.572Z,47.88
2019-05-14T04:16:39.883Z,48.93
2019-05-14T04:19:10.205Z,48.39
2019-05-14T04:21:40.838Z,50.10
2019-05-14T04:24:12.686Z,49.77
2019-05-14T04:27:01.762Z,51.86
2019-05-14T04:29:19.623Z,50.34
2019-05-14T04:31:50.331Z,51.18
2019-05-14T04:34:19.804Z,52.37
2019-05-14T04:36:50.483Z,50.45
2019-05-14T04:39:20.358Z,48.36
2019-05-14T04:41:49.967Z,49.86
2019-05-14T04:44:19.516Z,48.33
2019-05-14T04:46:49.561Z,48.36
2019-05-14T04:49:19.932Z,50.24
2019-05-14T04:51:50.519Z,50.85
2019-05-14T04:54:19.943Z,51.74
2019-05-14T04:56:50.701Z,51.27
2019-05-14T04:59:20.229Z,48.68
2019-05-14T05:01:49.692Z,49.72
2019-05-14T05:04:20.308Z,49.15
2019-05-14T05:06:50.229Z,48.25
2019-05-14T05:09:20.139Z,47.44
2019-05-14T05:11:50.049Z,46.45
2019-05-14T05:14:23.169Z,46.04
2019-05-14T05:16:50.556Z,45.27
2019-05-14T05:19:19.856Z,47.59
2019-05-14T05:24:28.972Z,45.89
2019-05-14T05:26:58.683Z,46.96
2019-05-14T05:29:28.702Z,49.91
2019-05-14T05:31:59.402Z,46.83
2019-05-14T05:34:28.880Z,48.11
2019-05-14T05:36:59.176Z,47.61
2019-05-14T05:39:28.688Z,46.29
2019-05-14T05:41:58.610Z,45.77
2019-05-14T05:44:28.783Z,45.87
2019-05-14T05:46:59.725Z,49.75
2019-05-14T05:49:29.395Z,47.66
2019-05-14T05:51:59.311Z,46.36
2019-05-14T05:54:29.349Z,44.84
2019-05-14T05:56:58.776Z,46.43
2019-05-14T05:59:29.262Z,45.44
2019-05-14T06:01:58.916Z,44.10
2019-05-14T06:04:29.039Z,46.63
2019-05-14T06:06:59.734Z,44.87
2019-05-14T06:09:29.529Z,46.35
2019-05-14T06:11:59.361Z,45.66
2019-05-14T06:14:29.175Z,47.17
2019-05-14T06:16:59.232Z,45.85
2019-05-14T06:19:29.120Z,44.12
2019-05-14T06:21:59.664Z,44.89
2019-05-14T06:24:29.249Z,44.14
2019-05-14T06:26:58.805Z,43.77
2019-05-14T06:29:28.971Z,43.76
2019-05-14T06:31:59.025Z,42.49
2019-05-14T06:34:29.088Z,43.32
2019-05-14T06:36:59.278Z,43.75
2019-05-14T06:39:28.779Z,43.05
2019-05-14T06:41:58.688Z,42.81
2019-05-14T06:44:29.504Z,42.78
2019-05-14T06:46:59.165Z,42.87
2019-05-14T06:49:29.141Z,42.80
2019-05-14T06:51:59.354Z,40.49
2019-05-14T06:54:29.245Z,41.53
2019-05-14T06:56:58.747Z,40.75
2019-05-14T06:59:28.843Z,41.17
2019-05-14T07:01:58.388Z,39.54
2019-05-14T07:04:28.820Z,38.90
2019-05-14T07:06:59.047Z,40.26
2019-05-14T07:09:29.083Z,39.61
2019-05-14T07:11:58.693Z,38.70
2019-05-14T07:14:28.370Z,37.88
2019-05-14T07:16:58.908Z,39.68
2019-05-14T07:19:29.400Z,38.84
2019-05-14T07:21:58.927Z,37.79
2019-05-14T07:24:28.464Z,36.92
2019-05-14T07:26:58.546Z,37.51
2019-05-14T07:29:29.241Z,36.97
2019-05-14T07:31:58.735Z,37.26
2019-05-14T07:34:28.365Z,36.10
2019-05-14T07:36:58.627Z,35.15
2019-05-14T07:39:29.065Z,36.91
2019-05-14T07:41:59.188Z,35.89
2019-05-14T07:44:29.717Z,37.07
2019-05-14T07:46:59.370Z,38.03
2019-05-14T07:49:29.204Z,37.32
2019-05-14T07:51:58.865Z,36.29
2019-05-14T07:54:28.436Z,35.73
2019-05-14T07:56:59.020Z,36.40
2019-05-14T07:59:28.842Z,36.07
2019-05-14T08:01:58.683Z,34.91
2019-05-14T08:04:28.898Z,35.14
2019-05-14T08:06:58.549Z,35.23
2019-05-14T08:09:28.404Z,35.21
2019-05-14T08:11:58.752Z,37.48
2019-05-14T08:14:29.453Z,35.51
2019-05-14T08:16:59.635Z,35.96
2019-05-14T08:19:31.459Z,36.47
2019-05-14T08:22:00.033Z,35.82
2019-05-14T08:24:30.141Z,37.69
2019-05-14T08:26:59.493Z,38.05
2019-05-14T08:29:28.832Z,37.91
2019-05-14T08:31:58.373Z,36.36
2019-05-14T08:34:30.425Z,36.41
2019-05-14T08:36:59.037Z,36.13
2019-05-14T08:39:28.669Z,36.80
2019-05-14T08:42:03.070Z,37.06
2019-05-14T08:44:29.515Z,35.18
2019-05-14T08:46:59.180Z,36.36
2019-05-14T08:49:38.972Z,36.83
2019-05-14T08:51:59.756Z,36.25
2019-05-14T08:54:29.032Z,36.80
2019-05-14T08:56:58.566Z,36.78
2019-05-14T08:59:28.628Z,34.91
2019-05-14T09:02:06.417Z,35.33
2019-05-14T09:04:32.733Z,34.53
2019-05-14T09:07:02.021Z,34.41
2019-05-14T09:09:34.502Z,33.27
2019-05-14T09:12:03.938Z,32.39
2019-05-14T09:14:33.330Z,31.91
2019-05-14T09:17:02.611Z,32.80
2019-05-14T09:19:32.013Z,31.67
2019-05-14T09:22:01.263Z,33.67
2019-05-14T09:24:30.624Z,31.87
2019-05-14T09:26:59.878Z,31.34
2019-05-14T09:29:30.071Z,30.95
2019-05-14T09:31:59.558Z,31.56
2019-05-14T09:34:32.415Z,31.30
2019-05-14T09:37:02.094Z,29.58
2019-05-14T09:39:31.449Z,27.90
2019-05-14T09:42:00.707Z,27.42
2019-05-14T09:44:31.523Z,28.58
2019-05-14T09:47:00.876Z,29.05
2019-05-14T09:49:30.165Z,27.76
2019-05-14T09:51:59.509Z,29.52
2019-05-14T09:54:28.949Z,29.97
2019-05-14T09:56:59.421Z,27.94
2019-05-14T09:59:28.684Z,28.52
2019-05-14T10:01:58.603Z,30.34
2019-05-14T10:04:28.254Z,29.87
2019-05-14T10:06:59.277Z,32.77
2019-05-14T10:09:29.116Z,31.33
2019-05-14T10:11:58.519Z,30.87
2019-05-14T10:14:29.772Z,30.86
2019-05-14T10:16:58.880Z,30.76
2019-05-14T10:19:29.601Z,30.95
2019-05-14T10:21:59.509Z,31.59
2019-05-14T10:24:29.290Z,29.80
2019-05-14T10:26:58.736Z,28.49
2019-05-14T10:29:28.629Z,27.04
2019-05-14T10:31:59.243Z,26.65
2019-05-14T10:34:28.897Z,27.28
2019-05-14T10:36:59.024Z,28.41
2019-05-14T10:39:29.755Z,28.38
2019-05-14T10:41:59.582Z,27.08
2019-05-14T10:44:29.367Z,25.18
2019-05-14T10:46:59.180Z,25.51
2019-05-14T10:49:29.969Z,24.75
2019-05-14T10:51:59.530Z,25.92
2019-05-14T10:54:29.413Z,25.21
2019-05-14T10:56:59.465Z,24.81
2019-05-14T10:59:29.579Z,25.51
2019-05-14T11:01:59.048Z,23.97
2019-05-14T11:04:28.724Z,24.17
2019-05-14T11:07:01.494Z,24.04
2019-05-14T11:09:29.864Z,23.56
2019-05-14T11:11:59.199Z,24.30
2019-05-14T11:14:31.787Z,23.76
2019-05-14T11:16:59.862Z,23.15
2019-05-14T11:19:29.257Z,23.44
2019-05-14T11:21:59.918Z,23.59
2019-05-14T11:24:29.672Z,23.63
2019-05-14T11:26:59.306Z,23.58
2019-05-14T11:29:29.782Z,22.50
2019-05-14T11:31:59.217Z,23.10
2019-05-14T11:34:28.882Z,21.77
2019-05-14T11:36:59.036Z,25.84
2019-05-14T11:39:28.942Z,25.57
2019-05-14T11:41:59.056Z,25.45
2019-05-14T11:44:28.774Z,24.94
2019-05-14T11:47:02.370Z,25.20
2019-05-14T11:49:29.251Z,23.80
2019-05-14T11:52:06.784Z,23.86
2019-05-14T11:54:29.732Z,23.93
2019-05-14T11:57:01.567Z,23.35
2019-05-14T11:59:30.919Z,23.55
2019-05-14T12:02:00.230Z,23.69
2019-05-14T12:04:29.611Z,22.81
2019-05-14T12:06:59.389Z,24.36
2019-05-14T12:09:28.787Z,23.40
2019-05-14T12:11:58.850Z,22.85
2019-05-14T12:14:28.336Z,23.93
2019-05-14T12:17:00.083Z,24.56
2019-05-14T12:19:28.628Z,23.11
2019-05-14T12:22:06.758Z,22.93
2019-05-14T12:24:29.309Z,22.20
2019-05-14T12:26:59.979Z,22.73
2019-05-14T12:29:29.484Z,24.13
2019-05-14T12:31:58.781Z,26.98
2019-05-14T12:34:29.588Z,25.93
2019-05-14T12:36:59.062Z,23.68
2019-05-14T12:39:29.335Z,23.57
2019-05-14T12:41:58.837Z,23.06
2019-05-14T12:44:29.063Z,22.46
2019-05-14T12:46:58.899Z,23.73
2019-05-14T12:49:28.323Z,23.80
2019-05-14T12:51:59.068Z,24.53
2019-05-14T12:54:29.745Z,23.88
2019-05-14T12:56:59.176Z,23.89
2019-05-14T12:59:28.682Z,24.15
2019-05-14T13:01:58.674Z,23.92
2019-05-14T13:04:28.603Z,23.71
2019-05-14T13:06:59.752Z,22.57
2019-05-14T13:09:29.214Z,21.41
2019-05-14T13:11:58.748Z,23.13
2019-05-14T13:14:28.404Z,24.19
2019-05-14T13:16:59.790Z,23.74
2019-05-14T13:19:28.737Z,23.07
2019-05-14T13:22:12.224Z,23.36
2019-05-14T13:24:29.077Z,23.73
2019-05-14T13:26:58.928Z,22.78
2019-05-14T13:29:28.928Z,22.65
2019-05-14T13:31:59.253Z,23.62
2019-05-14T13:34:28.912Z,24.20
2019-05-14T13:36:59.605Z,23.02
2019-05-14T13:39:29.230Z,21.95
2019-05-14T13:41:59.027Z,24.29
2019-05-14T13:44:29.257Z,23.34
2019-05-14T13:46:59.646Z,23.14
2019-05-14T13:49:29.709Z,22.94
2019-05-14T13:51:59.129Z,23.20
2019-05-14T13:54:31.810Z,22.07
2019-05-14T13:56:59.515Z,23.84
2019-05-14T13:59:28.868Z,23.67
2019-05-14T14:01:59.198Z,23.79
2019-05-14T14:04:28.703Z,22.82
2019-05-14T14:06:59.036Z,23.61
2019-05-14T14:09:31.558Z,24.18
2019-05-14T14:11:59.578Z,23.00
2019-05-14T14:14:29.266Z,22.67
2019-05-14T14:16:58.646Z,22.63
2019-05-14T14:19:28.308Z,22.06
2019-05-14T14:21:59.143Z,21.64
2019-05-14T14:24:29.192Z,21.96
2019-05-14T14:26:58.630Z,22.26
2019-05-14T14:29:27.964Z,22.81
2019-05-14T14:31:58.958Z,22.78
2019-05-14T14:34:29.025Z,22.42
2019-05-14T14:36:59.426Z,22.28
2019-05-14T14:39:29.062Z,22.02
2019-05-14T14:41:58.675Z,21.77
2019-05-14T14:44:30.572Z,21.75
2019-05-14T14:47:00.127Z,22.36
2019-05-14T14:49:29.522Z,22.72
2019-05-14T14:51:59.055Z,22.12
2019-05-14T14:54:28.866Z,22.08
2019-05-14T14:56:59.229Z,21.42
2019-05-14T14:59:30.461Z,21.79
2019-05-14T15:01:59.989Z,22.61
2019-05-14T15:04:29.413Z,22.26
2019-05-14T15:06:59.733Z,22.91
2019-05-14T15:09:29.295Z,22.33
2019-05-14T15:11:59.888Z,21.93
2019-05-14T15:14:29.906Z,22.43
2019-05-14T15:16:59.239Z,22.43
2019-05-14T15:19:29.777Z,23.12
2019-05-14T15:21:59.358Z,22.32
2019-05-14T15:24:28.695Z,22.85
2019-05-14T15:27:06.946Z,23.11
2019-05-14T15:29:29.079Z,22.31
2019-05-14T15:31:59.245Z,22.04
2019-05-14T15:34:29.697Z,21.31
2019-05-14T15:36:59.937Z,22.15
2019-05-14T15:39:30.207Z,23.05
2019-05-14T15:42:05.558Z,22.91
2019-05-14T15:44:47.619Z,22.87
2019-05-14T15:47:01.940Z,23.55
2019-05-14T15:49:31.312Z,23.22
2019-05-14T15:52:00.708Z,22.37
2019-05-14T15:54:45.521Z,23.10
2019-05-14T15:57:05.335Z,23.00
2019-05-14T15:59:34.732Z,22.29
2019-05-14T16:02:04.216Z,21.69
2019-05-14T16:04:33.508Z,22.94
2019-05-14T16:07:02.835Z,21.76
2019-05-14T16:09:32.175Z,23.02
2019-05-14T16:12:01.537Z,22.27
2019-05-14T16:14:30.858Z,22.27
2019-05-14T16:17:00.207Z,21.35
2019-05-14T16:19:29.527Z,22.56
2019-05-14T16:21:58.922Z,22.74
2019-05-14T16:24:28.644Z,22.91
2019-05-14T16:27:00.212Z,23.09
2019-05-14T16:29:40.380Z,22.47
2019-05-14T16:32:00.193Z,22.68
2019-05-14T16:34:29.530Z,23.13
2019-05-14T16:36:58.881Z,23.13
2019-05-14T16:39:28.525Z,22.92
2019-05-14T16:41:58.322Z,22.23
2019-05-14T16:44:28.338Z,21.90
2019-05-14T16:46:58.749Z,22.76
2019-05-14T16:49:29.932Z,23.43
2019-05-14T16:51:59.672Z,22.02
2019-05-14T16:54:29.558Z,22.43
2019-05-14T16:56:59.234Z,22.00
2019-05-14T16:59:29.440Z,22.11
2019-05-14T17:01:59.298Z,21.29
2019-05-14T17:04:29.356Z,21.39
2019-05-14T17:06:59.138Z,22.12
2019-05-14T17:09:28.642Z,22.42
2019-05-14T17:11:58.999Z,21.65
2019-05-14T17:14:29.248Z,22.25
2019-05-14T17:16:59.537Z,22.47
2019-05-14T17:19:29.844Z,22.59
2019-05-14T17:21:59.596Z,21.63
2019-05-14T17:24:29.413Z,22.07
2019-05-14T17:26:58.744Z,23.16
2019-05-14T17:29:28.597Z,23.30
2019-05-14T17:31:58.149Z,22.85
2019-05-14T17:34:29.272Z,23.31
2019-05-14T17:36:59.431Z,23.63
2019-05-14T17:39:28.988Z,22.53
2019-05-14T17:41:58.943Z,22.87
2019-05-14T17:44:28.538Z,22.67
2019-05-14T17:46:58.724Z,22.43
2019-05-14T17:49:28.499Z,22.78
2019-05-14T17:51:58.183Z,22.61
2019-05-14T17:54:28.481Z,23.92
2019-05-14T17:56:59.210Z,23.75
2019-05-14T17:59:29.728Z,23.97
2019-05-14T18:01:59.423Z,24.19
2019-05-14T18:04:28.835Z,23.56
2019-05-14T18:06:59.141Z,23.46
2019-05-14T18:09:29.294Z,24.14
2019-05-14T18:11:58.804Z,24.06
2019-05-14T18:14:30.530Z,24.13
2019-05-14T18:16:59.910Z,23.62
2019-05-14T18:19:29.367Z,24.39
2019-05-14T18:21:59.383Z,24.55
2019-05-14T18:24:28.915Z,23.91
2019-05-14T18:26:58.302Z,24.36
2019-05-14T18:29:29.561Z,24.45
2019-05-14T18:32:01.342Z,24.72
2019-05-14T18:34:29.919Z,24.28
2019-05-14T18:37:01.152Z,24.68
2019-05-14T18:39:30.534Z,24.60
2019-05-14T18:42:00.576Z,24.61
2019-05-14T18:44:30.165Z,24.78
2019-05-14T18:46:59.560Z,25.15
2019-05-14T18:49:28.968Z,25.17
2019-05-14T18:51:59.299Z,25.00
2019-05-14T18:54:29.388Z,25.43
2019-05-14T18:56:59.747Z,26.09
2019-05-14T18:59:30.754Z,25.64
2019-05-14T19:02:00.525Z,26.07
2019-05-14T19:04:29.918Z,26.65
2019-05-14T19:06:59.346Z,25.91
2019-05-14T19:09:29.327Z,25.95
2019-05-14T19:11:58.944Z,25.79
2019-05-14T19:14:29.250Z,26.56
2019-05-14T19:16:58.845Z,27.29
2019-05-14T19:19:29.410Z,27.09
2019-05-14T19:21:58.873Z,27.68
2019-05-14T19:24:28.784Z,27.46
2019-05-14T19:26:59.553Z,27.12
2019-05-14T19:29:29.024Z,27.43
2019-05-14T19:31:58.400Z,27.76
2019-05-14T19:34:28.763Z,27.95
2019-05-14T19:36:58.219Z,27.93
2019-05-14T19:39:28.194Z,28.04
2019-05-14T19:41:57.753Z,28.67
2019-05-14T19:44:42.936Z,28.79
2019-05-14T19:47:59.638Z,29.08
2019-05-14T19:50:29.549Z,28.99
2019-05-14T19:52:59.088Z,29.41
2019-05-14T19:55:28.995Z,29.89
2019-05-14T19:57:58.451Z,30.15
2019-05-14T20:00:29.738Z,29.90
2019-05-14T20:02:59.424Z,29.69
2019-05-14T20:05:28.817Z,30.30
2019-05-14T20:07:58.206Z,29.96
2019-05-14T20:10:29.229Z,30.12
2019-05-14T20:12:59.316Z,30.97
2019-05-14T20:15:28.648Z,30.56
2019-05-14T20:17:58.246Z,30.56
2019-05-14T20:20:28.773Z,31.08
2019-05-14T20:22:58.981Z,30.84
2019-05-14T20:25:35.712Z,30.89
2019-05-14T20:28:19.367Z,30.60
2019-05-14T20:30:38.616Z,30.53
2019-05-14T20:33:08.571Z,30.58
2019-05-14T20:35:38.140Z,30.85
2019-05-14T20:38:09.035Z,31.41
2019-05-14T20:40:38.482Z,31.21
2019-05-14T20:43:10.326Z,31.58
2019-05-14T20:45:39.227Z,32.15
2019-05-14T20:48:09.000Z,32.34
2019-05-14T20:50:38.537Z,32.06
2019-05-14T20:53:08.492Z,32.31
2019-05-14T20:55:38.852Z,32.54
2019-05-14T20:58:08.377Z,33.35
2019-05-14T21:00:41.252Z,32.62
2019-05-14T21:03:09.005Z,32.53
2019-05-14T21:05:38.922Z,32.48
2019-05-14T21:08:13.656Z,32.59
2019-05-14T21:10:40.655Z,32.09
2019-05-14T21:13:09.969Z,32.17
2019-05-14T21:15:39.402Z,32.55
2019-05-14T21:18:08.790Z,33.34
2019-05-14T21:20:39.384Z,33.07
2019-05-14T21:23:13.440Z,33.11
2019-05-14T21:26:10.634Z,33.04
2019-05-14T21:28:39.966Z,33.43
2019-05-14T21:31:10.446Z,32.98
2019-05-14T21:33:39.955Z,33.18
2019-05-14T21:36:12.297Z,33.60
2019-05-14T21:38:41.120Z,33.14
2019-05-14T21:41:12.899Z,33.41
2019-05-14T21:43:42.258Z,32.73
2019-05-14T21:46:11.614Z,32.54
2019-05-14T21:48:40.957Z,33.08
2019-05-14T21:51:10.403Z,32.59
2019-05-14T21:53:41.210Z,32.88
2019-05-14T21:56:10.736Z,32.64
2019-05-14T21:58:40.212Z,33.27
2019-05-14T22:01:10.880Z,32.63
2019-05-14T22:03:41.531Z,32.84
2019-05-14T22:06:10.793Z,33.66
2019-05-14T22:08:59.879Z,33.41
2019-05-14T22:11:29.242Z,32.53
2019-05-14T22:13:58.611Z,32.70
2019-05-14T22:16:28.235Z,32.77
2019-05-14T22:18:59.311Z,32.97
2019-05-14T22:21:28.994Z,32.77
2019-05-14T22:23:58.903Z,32.55
2019-05-14T22:26:28.392Z,32.62
2019-05-14T22:28:58.669Z,32.44
2019-05-14T22:31:28.954Z,33.07
2019-05-14T22:33:58.471Z,34.24
2019-05-14T22:36:29.283Z,33.45
2019-05-14T22:38:58.841Z,33.34
2019-05-14T22:41:29.140Z,33.62
2019-05-14T22:43:59.922Z,33.95
2019-05-14T22:46:29.531Z,34.38
2019-05-14T22:48:58.869Z,33.84
2019-05-14T22:51:28.221Z,34.31
2019-05-14T22:53:58.990Z,34.48
2019-05-14T22:56:28.435Z,34.80
2019-05-14T22:58:58.325Z,34.36
2019-05-14T23:01:28.869Z,35.84
2019-05-14T23:03:59.613Z,35.32
2019-05-14T23:06:29.031Z,35.51
2019-05-14T23:08:58.390Z,35.43
2019-05-14T23:11:28.823Z,34.24
2019-05-14T23:13:58.333Z,37.14
2019-05-14T23:16:34.373Z,35.52
2019-05-14T23:18:58.726Z,36.79
2019-05-14T23:21:28.441Z,35.96
2019-05-14T23:23:58.404Z,37.81
2019-05-14T23:26:28.580Z,37.16
2019-05-14T23:28:58.759Z,36.33
2019-05-14T23:31:28.823Z,36.93
2019-05-14T23:33:58.652Z,37.50
2019-05-14T23:36:29.211Z,37.58
2019-05-14T23:38:59.584Z,39.31
2019-05-14T23:41:28.855Z,38.06
2019-05-14T23:43:59.961Z,37.27
2019-05-14T23:46:29.335Z,37.01
2019-05-14T23:48:59.237Z,38.18
2019-05-14T23:51:29.104Z,38.63
2019-05-14T23:53:58.613Z,38.49
2019-05-14T23:56:28.809Z,38.72
2019-05-14T23:59:01.833Z,38.10
